Time;durP1;ratioP1;P1;durP2;ratioP2;P2;SDS_P1;SDS_P2;PMS_P1;PMS_P2;Temp;Humidity;BMP_temperature;BMP_pressure;BME280_temperature;BME280_humidity;BME280_pressure;Samples;Min_cycle;Max_cycle;Signal;HPM_P1;HPM_P2
2023/03/20 00:01:51;;;;;;;18.90;10.38;;;9.30;99.90;;;;;;5070301;28;20041;-67
2023/03/20 00:04:17;;;;;;;14.85;9.25;;;9.30;99.90;;;;;;5069892;28;20413;-67
2023/03/20 00:06:42;;;;;;;11.60;8.95;;;9.30;99.90;;;;;;5053308;28;20043;-67
2023/03/20 00:09:08;;;;;;;11.15;7.40;;;9.20;99.90;;;;;;5053533;28;20083;-67
2023/03/20 00:11:48;;;;;;;10.02;6.78;;;9.10;99.90;;;;;;5053469;28;20397;-67
2023/03/20 00:14:16;;;;;;;8.88;6.45;;;9.10;99.90;;;;;;5053126;28;20463;-67
2023/03/20 00:16:44;;;;;;;10.50;5.97;;;9.10;99.90;;;;;;5053121;28;20040;-67
2023/03/20 00:19:22;;;;;;;9.23;6.18;;;9.10;99.90;;;;;;5053000;28;20048;-67
2023/03/20 00:21:48;;;;;;;13.00;6.65;;;9.00;99.90;;;;;;5053113;28;20048;-67
2023/03/20 00:24:15;;;;;;;9.82;6.57;;;9.00;99.90;;;;;;5052887;28;20494;-67
2023/03/20 00:26:43;;;;;;;11.15;7.07;;;9.00;99.90;;;;;;5052942;28;20612;-67
2023/03/20 00:29:18;;;;;;;11.18;6.35;;;9.00;99.90;;;;;;5053150;28;20090;-67
2023/03/20 00:31:44;;;;;;;13.80;7.38;;;8.90;99.90;;;;;;5053129;28;20045;-67
2023/03/20 00:34:13;;;;;;;13.20;7.15;;;9.00;99.90;;;;;;5052740;28;20514;-67
2023/03/20 00:36:39;;;;;;;11.48;6.82;;;9.00;99.90;;;;;;5052995;28;20040;-67
2023/03/20 00:39:05;;;;;;;13.68;7.53;;;9.00;99.90;;;;;;5052606;28;20406;-67
2023/03/20 00:41:41;;;;;;;11.80;7.00;;;9.00;99.90;;;;;;5052886;28;20047;-67
2023/03/20 00:44:30;;;;;;;11.75;6.95;;;9.00;99.90;;;;;;5052591;28;20071;-67
2023/03/20 00:46:59;;;;;;;13.60;7.20;;;9.10;99.90;;;;;;5052816;28;20512;-67
2023/03/20 00:49:27;;;;;;;11.90;6.80;;;9.10;99.90;;;;;;5052525;28;20068;-67
2023/03/20 00:51:53;;;;;;;13.65;6.97;;;9.10;99.90;;;;;;5052460;28;20040;-67
2023/03/20 00:54:19;;;;;;;14.07;7.22;;;9.10;99.90;;;;;;5052281;28;20116;-67
2023/03/20 00:56:52;;;;;;;12.30;6.97;;;9.10;99.90;;;;;;5052386;28;20144;-67
2023/03/20 00:59:21;;;;;;;15.98;7.47;;;9.00;99.90;;;;;;5052291;28;20037;-67
2023/03/20 01:01:47;;;;;;;15.32;7.68;;;9.00;99.90;;;;;;5052571;28;20029;-67
2023/03/20 01:04:16;;;;;;;15.18;8.00;;;9.00;99.90;;;;;;5051984;28;20037;-67
2023/03/20 01:06:42;;;;;;;14.65;8.05;;;9.00;99.90;;;;;;5052227;28;20044;-67
2023/03/20 01:09:08;;;;;;;20.83;8.30;;;9.00;99.90;;;;;;5052176;28;20041;-67
2023/03/20 01:11:34;;;;;;;20.60;7.85;;;9.00;99.90;;;;;;5052139;28;20040;-67
2023/03/20 01:14:01;;;;;;;21.17;8.18;;;9.00;99.90;;;;;;5052317;28;20094;-67
2023/03/20 01:16:27;;;;;;;21.23;7.70;;;9.00;99.90;;;;;;5052093;28;20049;-67
2023/03/20 01:18:53;;;;;;;18.40;7.63;;;8.90;99.90;;;;;;5051975;28;20079;-67
2023/03/20 01:21:20;;;;;;;23.27;7.40;;;8.90;99.90;;;;;;5052019;28;20045;-67
2023/03/20 01:23:46;;;;;;;18.30;7.10;;;8.90;99.90;;;;;;5051922;28;20052;-67
2023/03/20 01:26:22;;;;;;;15.63;6.57;;;8.90;99.90;;;;;;5051953;28;20041;-67
2023/03/20 01:28:50;;;;;;;16.05;6.75;;;8.90;99.90;;;;;;5051951;28;20401;-67
2023/03/20 01:31:16;;;;;;;18.30;6.20;;;8.80;99.90;;;;;;5053129;28;20045;-67
2023/03/20 01:33:41;;;;;;;18.33;6.15;;;8.90;99.90;;;;;;5053068;28;20043;-67
2023/03/20 01:36:10;;;;;;;14.13;5.95;;;8.80;99.90;;;;;;5053015;28;20033;-67
2023/03/20 01:38:37;;;;;;;14.90;6.15;;;8.80;99.90;;;;;;5051792;28;20129;-67
2023/03/20 01:41:11;;;;;;;16.77;6.30;;;8.80;99.90;;;;;;5051672;28;20099;-67
2023/03/20 01:43:37;;;;;;;14.45;6.07;;;8.80;99.90;;;;;;5051980;28;20037;-67
2023/03/20 01:46:22;;;;;;;14.40;5.53;;;8.80;99.90;;;;;;5051703;28;20382;-67
2023/03/20 01:48:56;;;;;;;14.38;6.03;;;8.80;99.90;;;;;;5052014;28;20140;-67
2023/03/20 01:51:27;;;;;;;14.45;5.90;;;8.70;99.90;;;;;;5051677;28;20048;-67
2023/03/20 01:54:01;;;;;;;13.57;6.97;;;8.70;99.90;;;;;;5051614;28;20052;-67
2023/03/20 01:56:31;;;;;;;21.63;6.78;;;8.60;99.90;;;;;;5051604;28;20116;-67
2023/03/20 01:59:04;;;;;;;16.40;6.65;;;8.60;99.90;;;;;;5051814;28;20063;-67
2023/03/20 02:01:30;;;;;;;13.93;6.95;;;8.50;99.90;;;;;;5053421;28;20436;-67
2023/03/20 02:03:56;;;;;;;11.93;7.35;;;8.40;99.90;;;;;;5051495;28;20481;-67
2023/03/20 02:06:24;;;;;;;17.20;8.25;;;8.40;99.90;;;;;;5051504;28;20063;-67
2023/03/20 02:08:52;;;;;;;17.30;8.32;;;8.40;99.90;;;;;;5051482;28;20073;-67
2023/03/20 02:11:21;;;;;;;22.58;10.75;;;8.40;99.90;;;;;;5051714;28;20059;-67
2023/03/20 02:13:48;;;;;;;21.70;10.77;;;8.40;99.90;;;;;;5051398;28;20041;-67
2023/03/20 02:16:16;;;;;;;21.65;11.48;;;8.30;99.90;;;;;;5053442;28;20094;-67
2023/03/20 02:18:46;;;;;;;22.02;12.70;;;8.30;99.90;;;;;;5072231;28;20464;-67
2023/03/20 02:21:33;;;;;;;28.13;13.50;;;8.30;99.90;;;;;;5072056;28;20040;-67
2023/03/20 02:24:36;;;;;;;21.80;12.68;;;8.30;99.90;;;;;;5055282;28;20048;-67
2023/03/20 02:27:33;;;;;;;21.85;12.15;;;8.30;99.90;;;;;;5055549;28;20048;-67
2023/03/20 02:30:13;;;;;;;20.30;13.30;;;8.30;99.90;;;;;;5055153;28;20072;-67
2023/03/20 02:33:04;;;;;;;22.65;12.52;;;8.20;99.90;;;;;;5055413;28;20405;-67
2023/03/20 02:35:40;;;;;;;19.73;12.00;;;8.20;99.90;;;;;;5055295;28;20093;-67
2023/03/20 02:38:37;;;;;;;23.98;12.88;;;8.20;99.90;;;;;;5055083;28;20044;-67
2023/03/20 02:41:19;;;;;;;27.15;12.60;;;8.20;99.90;;;;;;5054926;28;20048;-67
2023/03/20 02:44:19;;;;;;;22.98;12.40;;;8.20;99.90;;;;;;5054869;28;20124;-67
2023/03/20 02:46:53;;;;;;;19.10;12.00;;;8.20;99.90;;;;;;5055045;28;20409;-67
2023/03/20 02:49:43;;;;;;;24.70;12.68;;;8.20;99.90;;;;;;5054856;28;20056;-67
2023/03/20 02:52:28;;;;;;;21.75;11.63;;;8.20;99.90;;;;;;5054752;28;20048;-67
2023/03/20 02:54:59;;;;;;;20.45;10.98;;;8.10;99.90;;;;;;5054442;28;20056;-67
2023/03/20 02:57:42;;;;;;;25.05;11.57;;;8.20;99.90;;;;;;5054700;28;20128;-67
2023/03/20 03:00:14;;;;;;;;;;;8.20;99.90;;;;;;5055008;28;20049;-67
2023/03/20 03:02:47;;;;;;;22.00;11.15;;;8.20;99.90;;;;;;5054848;28;20385;-67
2023/03/20 03:05:20;;;;;;;19.45;11.35;;;8.10;99.90;;;;;;5054473;28;20040;-67
2023/03/20 03:07:49;;;;;;;22.70;10.77;;;8.20;99.90;;;;;;5054573;28;20037;-67
2023/03/20 03:10:26;;;;;;;19.67;10.68;;;8.20;99.90;;;;;;5054463;28;20083;-67
2023/03/20 03:12:54;;;;;;;21.45;10.88;;;8.20;99.90;;;;;;5054430;28;20047;-67
2023/03/20 03:15:33;;;;;;;19.77;10.48;;;8.20;99.90;;;;;;5054236;28;20468;-67
2023/03/20 03:18:01;;;;;;;24.67;11.52;;;8.20;99.90;;;;;;5070969;28;20139;-67
2023/03/20 03:20:31;;;;;;;21.30;10.68;;;8.20;99.90;;;;;;5070831;28;20041;-67
2023/03/20 03:22:57;;;;;;;19.65;11.38;;;8.10;99.90;;;;;;5070874;28;20513;-67
2023/03/20 03:25:27;;;;;;;22.20;12.07;;;8.20;99.90;;;;;;5070811;28;20036;-67
2023/03/20 03:28:01;;;;;;;19.17;10.95;;;8.20;99.90;;;;;;5070691;28;20047;-67
2023/03/20 03:30:31;;;;;;;21.33;11.77;;;8.20;99.90;;;;;;5054099;28;20045;-67
2023/03/20 03:33:19;;;;;;;21.30;10.65;;;8.20;99.90;;;;;;5054072;28;20045;-67
2023/03/20 03:35:47;;;;;;;19.63;11.70;;;8.20;99.90;;;;;;5053919;28;20124;-67
2023/03/20 03:38:24;;;;;;;19.85;10.38;;;8.20;99.90;;;;;;5070554;28;20072;-67
2023/03/20 03:41:25;;;;;;;20.00;11.50;;;8.20;99.90;;;;;;5053793;28;20041;-67
2023/03/20 03:44:14;;;;;;;17.88;10.02;;;8.20;99.90;;;;;;5053991;28;20047;-67
2023/03/20 03:47:23;;;;;;;17.98;10.70;;;8.10;99.90;;;;;;5053750;28;20571;-67
2023/03/20 03:49:54;;;;;;;18.08;10.07;;;8.20;99.90;;;;;;5043065;28;20140;-67
2023/03/20 03:52:23;;;;;;;17.50;10.27;;;8.10;99.90;;;;;;5053928;28;20101;-67
2023/03/20 03:55:01;;;;;;;15.23;9.85;;;8.20;99.90;;;;;;5070088;28;20122;-67
2023/03/20 03:57:41;;;;;;;18.00;8.90;;;8.20;99.90;;;;;;5053606;28;20044;-67
2023/03/20 04:00:10;;;;;;;15.02;8.52;;;8.20;99.90;;;;;;5053581;28;20048;-67
2023/03/20 04:02:36;;;;;;;15.02;9.13;;;8.10;99.90;;;;;;5037302;28;20037;-67
2023/03/20 04:05:04;;;;;;;12.52;8.60;;;8.10;99.90;;;;;;5053639;28;20029;-67
2023/03/20 04:07:30;;;;;;;14.38;8.57;;;8.10;99.90;;;;;;5053365;28;20087;-67
2023/03/20 04:09:55;;;;;;;14.15;7.88;;;8.10;99.90;;;;;;5053328;28;20040;-67
2023/03/20 04:12:24;;;;;;;14.43;8.10;;;8.10;99.90;;;;;;5053248;28;20114;-67
2023/03/20 04:14:49;;;;;;;11.52;7.68;;;8.10;99.90;;;;;;5053132;28;20044;-67
2023/03/20 04:17:15;;;;;;;13.60;7.82;;;8.10;99.90;;;;;;5053168;28;20115;-67
2023/03/20 04:19:41;;;;;;;14.13;7.97;;;8.10;99.90;;;;;;5053262;28;20041;-67
2023/03/20 04:22:06;;;;;;;15.35;8.05;;;8.10;99.90;;;;;;5053317;28;20041;-67
2023/03/20 04:24:32;;;;;;;14.10;7.82;;;8.10;99.90;;;;;;5036356;28;20498;-67
2023/03/20 04:26:57;;;;;;;14.70;8.63;;;8.00;99.90;;;;;;5036407;28;20044;-67
2023/03/20 04:29:23;;;;;;;15.43;8.65;;;8.00;99.90;;;;;;5052962;28;20074;-67
2023/03/20 04:31:49;;;;;;;14.32;8.18;;;8.00;99.90;;;;;;5036282;28;20110;-67
2023/03/20 04:34:15;;;;;;;13.80;7.78;;;8.00;99.90;;;;;;5052996;28;20084;-67
2023/03/20 04:36:40;;;;;;;13.43;7.75;;;8.00;99.90;;;;;;5053040;28;20041;-67
2023/03/20 04:39:06;;;;;;;13.65;7.25;;;7.90;99.90;;;;;;5053262;28;20495;-67
2023/03/20 04:41:32;;;;;;;15.38;7.50;;;7.90;99.90;;;;;;5052705;28;20413;-67
2023/03/20 04:43:57;;;;;;;13.63;7.35;;;8.00;99.90;;;;;;5052593;28;20084;-67
2023/03/20 04:46:23;;;;;;;13.32;6.53;;;7.90;99.90;;;;;;5052577;28;20060;-67
2023/03/20 04:48:49;;;;;;;14.38;7.25;;;7.90;99.90;;;;;;5052531;28;20045;-67
2023/03/20 04:51:14;;;;;;;14.75;6.93;;;7.90;99.90;;;;;;5052512;28;20029;-67
2023/03/20 04:53:40;;;;;;;17.15;7.72;;;7.90;99.90;;;;;;5053624;28;20092;-67
2023/03/20 04:56:06;;;;;;;13.60;7.03;;;7.90;99.90;;;;;;5052583;28;20069;-67
2023/03/20 04:58:32;;;;;;;12.48;7.03;;;7.90;99.90;;;;;;5052456;28;20041;-67
2023/03/20 05:00:57;;;;;;;14.48;7.60;;;7.90;99.90;;;;;;5052292;28;20045;-68
2023/03/20 05:03:23;;;;;;;13.73;7.57;;;7.90;99.90;;;;;;5052248;28;20037;-68
2023/03/20 05:05:49;;;;;;;15.13;7.85;;;7.90;99.90;;;;;;5053583;28;20033;-67
2023/03/20 05:08:14;;;;;;;16.85;8.18;;;7.80;99.90;;;;;;5052244;28;20451;-67
2023/03/20 05:10:40;;;;;;;14.73;8.23;;;7.80;99.90;;;;;;5052183;28;20190;-67
2023/03/20 05:13:05;;;;;;;23.90;9.50;;;7.80;99.90;;;;;;5052224;28;20037;-67
2023/03/20 05:15:31;;;;;;;17.38;8.38;;;7.80;99.90;;;;;;5052364;28;20049;-67
2023/03/20 05:17:57;;;;;;;17.75;8.70;;;7.80;99.90;;;;;;5052117;28;20493;-67
2023/03/20 05:20:22;;;;;;;14.05;8.77;;;7.70;99.90;;;;;;5051971;28;20041;-67
2023/03/20 05:22:50;;;;;;;17.60;9.23;;;7.80;99.90;;;;;;5052022;28;20061;-67
2023/03/20 05:25:15;;;;;;;14.70;9.02;;;7.70;99.90;;;;;;5051885;28;20452;-67
2023/03/20 05:27:41;;;;;;;16.20;9.27;;;7.80;99.90;;;;;;5051937;28;20076;-67
2023/03/20 05:30:07;;;;;;;15.85;9.35;;;7.80;99.90;;;;;;5053433;28;20035;-67
2023/03/20 05:32:35;;;;;;;17.17;10.25;;;7.70;99.90;;;;;;5051901;28;20489;-68
2023/03/20 05:35:00;;;;;;;17.10;10.40;;;7.80;99.90;;;;;;5068457;28;20467;-67
2023/03/20 05:37:26;;;;;;;18.52;9.70;;;7.80;99.90;;;;;;5068744;28;20072;-67
2023/03/20 05:39:51;;;;;;;15.68;9.98;;;7.80;99.90;;;;;;5051728;28;20041;-67
2023/03/20 05:42:17;;;;;;;17.58;9.80;;;7.80;99.90;;;;;;5052025;28;20041;-67
2023/03/20 05:44:42;;;;;;;17.83;9.85;;;7.80;99.90;;;;;;5051722;28;20045;-67
2023/03/20 05:47:08;;;;;;;17.50;9.73;;;7.80;99.90;;;;;;5051727;28;20119;-67
2023/03/20 05:49:34;;;;;;;14.05;9.77;;;7.80;99.90;;;;;;5051702;28;20045;-67
2023/03/20 05:51:59;;;;;;;21.00;10.63;;;7.80;99.90;;;;;;5055123;28;20094;-67
2023/03/20 05:54:25;;;;;;;14.30;9.50;;;7.80;99.90;;;;;;5055513;28;20505;-67
2023/03/20 05:56:50;;;;;;;15.98;9.73;;;7.80;99.90;;;;;;5055832;28;20124;-67
2023/03/20 05:59:16;;;;;;;18.90;10.35;;;7.80;99.90;;;;;;5055679;28;20055;-67
2023/03/20 06:01:42;;;;;;;15.00;10.30;;;7.80;99.90;;;;;;5055722;28;20117;-67
2023/03/20 06:04:07;;;;;;;14.13;10.15;;;7.70;99.90;;;;;;5055631;28;20037;-67
2023/03/20 06:06:36;;;;;;;15.77;9.82;;;7.70;99.90;;;;;;5055632;28;20142;-67
2023/03/20 06:09:03;;;;;;;17.48;10.60;;;7.70;99.90;;;;;;5055594;28;20041;-67
2023/03/20 06:11:28;;;;;;;13.77;9.40;;;7.70;99.90;;;;;;5072223;28;20120;-67
2023/03/20 06:13:56;;;;;;;17.55;9.90;;;7.70;99.90;;;;;;5055704;28;20040;-67
2023/03/20 06:16:22;;;;;;;15.55;9.90;;;7.80;99.90;;;;;;5055419;28;20045;-68
2023/03/20 06:18:48;;;;;;;16.17;10.20;;;7.80;99.90;;;;;;5055404;28;20040;-67
2023/03/20 06:21:14;;;;;;;15.35;10.07;;;7.70;99.90;;;;;;5055240;28;20045;-67
2023/03/20 06:23:40;;;;;;;17.13;10.18;;;7.80;99.90;;;;;;5055168;28;20159;-67
2023/03/20 06:26:06;;;;;;;16.90;9.98;;;7.80;99.90;;;;;;5055533;28;20059;-67
2023/03/20 06:28:31;;;;;;;15.05;9.60;;;7.80;99.90;;;;;;5055236;28;20045;-67
2023/03/20 06:30:57;;;;;;;13.85;10.32;;;7.80;99.90;;;;;;5055461;28;20081;-67
2023/03/20 06:33:22;;;;;;;17.98;10.05;;;7.90;99.90;;;;;;5055117;28;20036;-67
2023/03/20 06:35:49;;;;;;;18.98;10.18;;;7.80;99.90;;;;;;5072004;28;20402;-67
2023/03/20 06:38:15;;;;;;;15.68;9.68;;;7.90;99.90;;;;;;5055066;28;20128;-67
2023/03/20 06:40:41;;;;;;;16.88;9.95;;;7.90;99.90;;;;;;5054943;28;20067;-67
2023/03/20 06:43:08;;;;;;;15.23;9.93;;;7.90;99.90;;;;;;5055162;28;20459;-67
2023/03/20 06:45:33;;;;;;;15.63;10.15;;;7.90;99.90;;;;;;5054841;28;20048;-67
2023/03/20 06:47:59;;;;;;;17.40;10.20;;;7.90;99.90;;;;;;5054930;28;20124;-67
2023/03/20 06:50:26;;;;;;;18.52;10.10;;;7.90;99.90;;;;;;5054865;28;20120;-67
2023/03/20 06:52:51;;;;;;;15.60;9.20;;;7.90;99.90;;;;;;5054725;28;20461;-67
2023/03/20 06:55:17;;;;;;;17.23;9.90;;;7.90;99.90;;;;;;5054564;28;20128;-67
2023/03/20 06:57:43;;;;;;;16.63;9.85;;;7.90;99.90;;;;;;5054715;28;20041;-67
2023/03/20 07:00:09;;;;;;;14.13;9.60;;;8.00;99.90;;;;;;5054728;28;20498;-67
2023/03/20 07:02:35;;;;;;;16.90;10.32;;;8.00;99.90;;;;;;5054128;28;20547;-67
2023/03/20 07:05:02;;;;;;;17.08;10.10;;;8.00;99.90;;;;;;5054547;28;20044;-68
2023/03/20 07:07:28;;;;;;;17.15;9.40;;;8.00;99.90;;;;;;5054522;28;20041;-68
2023/03/20 07:09:53;;;;;;;19.70;10.65;;;8.00;99.90;;;;;;5054450;28;20049;-68
2023/03/20 07:12:19;;;;;;;14.73;9.40;;;8.00;99.90;;;;;;5054403;28;20045;-67
2023/03/20 07:14:45;;;;;;;20.38;10.30;;;8.00;99.90;;;;;;5054561;28;20091;-68
2023/03/20 07:17:11;;;;;;;16.50;10.13;;;8.00;99.90;;;;;;5071300;28;20584;-68
2023/03/20 07:19:37;;;;;;;20.67;10.35;;;8.00;99.90;;;;;;5070955;28;20044;-68
2023/03/20 07:22:10;;;;;;;14.18;9.73;;;8.00;99.90;;;;;;5071095;28;20401;-68
2023/03/20 07:24:36;;;;;;;17.30;10.52;;;8.10;99.90;;;;;;5054121;28;20094;-68
2023/03/20 07:27:02;;;;;;;16.15;9.70;;;8.00;99.90;;;;;;5054419;28;20045;-68
2023/03/20 07:29:27;;;;;;;14.68;10.38;;;8.10;99.90;;;;;;5054047;28;20600;-68
2023/03/20 07:31:53;;;;;;;18.73;10.20;;;8.10;99.90;;;;;;5054305;28;20045;-68
2023/03/20 07:34:18;;;;;;;18.17;10.40;;;8.10;99.90;;;;;;5053923;28;20506;-68
2023/03/20 07:36:44;;;;;;;17.95;11.13;;;8.10;99.90;;;;;;5054183;28;20040;-68
2023/03/20 07:39:12;;;;;;;17.88;10.23;;;8.20;99.90;;;;;;5054075;28;20118;-68
2023/03/20 07:41:38;;;;;;;18.48;10.38;;;8.30;99.90;;;;;;5070857;28;20033;-68
2023/03/20 07:44:06;;;;;;;18.23;11.10;;;8.30;99.90;;;;;;5053779;28;20492;-68
2023/03/20 07:46:32;;;;;;;18.20;10.82;;;8.30;99.90;;;;;;5070420;28;20045;-68
2023/03/20 07:48:57;;;;;;;19.70;10.40;;;8.30;99.90;;;;;;5053773;28;20064;-68
2023/03/20 07:51:24;;;;;;;22.48;11.50;;;8.30;99.90;;;;;;5053637;28;20037;-68
2023/03/20 07:53:49;;;;;;;17.75;10.75;;;8.30;99.90;;;;;;5053574;28;20401;-68
2023/03/20 07:56:15;;;;;;;20.98;11.63;;;8.30;99.90;;;;;;5053499;28;20037;-70
2023/03/20 07:58:40;;;;;;;20.40;11.45;;;8.40;99.90;;;;;;5053800;28;20175;-68
2023/03/20 08:01:06;;;;;;;22.40;11.25;;;8.40;99.90;;;;;;5053432;28;20048;-68
2023/03/20 08:03:32;;;;;;;18.15;10.95;;;8.50;99.90;;;;;;5053390;28;20049;-68
2023/03/20 08:05:58;;;;;;;16.65;11.50;;;8.50;99.90;;;;;;5053370;28;20505;-68
2023/03/20 08:08:24;;;;;;;19.45;10.60;;;8.50;99.90;;;;;;5053328;28;20036;-68
2023/03/20 08:10:50;;;;;;;21.80;11.40;;;8.60;99.90;;;;;;5053306;28;20041;-68
2023/03/20 08:13:15;;;;;;;20.42;11.23;;;8.60;99.90;;;;;;5052444;28;20041;-68
2023/03/20 08:15:41;;;;;;;18.45;11.15;;;8.60;99.90;;;;;;5053135;28;20045;-68
2023/03/20 08:18:07;;;;;;;21.45;11.60;;;8.60;99.90;;;;;;5053206;28;20045;-68
2023/03/20 08:20:32;;;;;;;16.17;10.60;;;8.60;99.90;;;;;;5053396;28;20044;-68
2023/03/20 08:22:58;;;;;;;16.75;10.20;;;8.70;99.90;;;;;;5053032;28;20486;-68
2023/03/20 08:25:23;;;;;;;21.30;11.00;;;8.70;99.90;;;;;;5053061;28;20091;-68
2023/03/20 08:27:49;;;;;;;17.75;11.07;;;8.80;99.90;;;;;;5054751;28;20052;-68
2023/03/20 08:30:15;;;;;;;16.98;11.07;;;8.80;99.90;;;;;;5052891;28;20045;-71
2023/03/20 08:32:41;;;;;;;17.83;10.45;;;8.80;99.90;;;;;;5052865;28;20075;-71
2023/03/20 08:35:07;;;;;;;22.02;10.73;;;8.80;99.90;;;;;;5052977;28;20048;-68
2023/03/20 08:37:34;;;;;;;19.10;10.45;;;8.90;99.90;;;;;;5069430;28;20386;-68
2023/03/20 08:40:00;;;;;;;22.10;11.23;;;8.90;99.90;;;;;;5052696;28;20057;-68
2023/03/20 08:42:26;;;;;;;23.05;10.77;;;9.00;99.90;;;;;;5052714;28;20048;-67
2023/03/20 08:44:51;;;;;;;17.25;11.02;;;9.10;99.90;;;;;;5069282;28;20046;-68
2023/03/20 08:47:17;;;;;;;17.38;10.40;;;9.20;99.90;;;;;;5052921;28;20116;-68
2023/03/20 08:49:42;;;;;;;20.02;11.05;;;9.30;99.90;;;;;;5052591;28;20033;-68
2023/03/20 08:52:08;;;;;;;20.02;11.05;;;9.50;99.90;;;;;;5052498;28;20102;-68
2023/03/20 08:54:34;;;;;;;17.38;10.45;;;9.50;99.90;;;;;;5052226;28;20120;-68
2023/03/20 08:57:00;;;;;;;17.65;9.65;;;9.60;99.90;;;;;;5035867;28;20052;-68
2023/03/20 08:59:25;;;;;;;18.67;9.85;;;9.70;99.90;;;;;;5053548;28;20088;-67
2023/03/20 09:01:51;;;;;;;22.20;10.75;;;9.70;99.90;;;;;;5052339;28;20087;-68
2023/03/20 09:04:18;;;;;;;16.02;10.00;;;9.70;99.90;;;;;;5036044;28;20470;-68
2023/03/20 09:06:43;;;;;;;17.77;9.68;;;9.70;99.90;;;;;;5052572;28;20509;-68
2023/03/20 09:09:09;;;;;;;16.85;9.65;;;9.70;99.90;;;;;;5053805;28;20479;-68
2023/03/20 09:11:36;;;;;;;17.27;9.90;;;9.80;99.90;;;;;;5052473;28;20037;-68
2023/03/20 09:14:01;;;;;;;15.70;9.27;;;9.80;99.90;;;;;;5052124;28;20037;-68
2023/03/20 09:16:27;;;;;;;14.73;9.18;;;9.90;99.90;;;;;;5052132;28;20044;-68
2023/03/20 09:18:53;;;;;;;16.83;9.43;;;9.90;99.90;;;;;;5052092;28;20045;-68
2023/03/20 09:21:18;;;;;;;17.35;8.75;;;10.00;99.90;;;;;;5051965;28;20124;-68
2023/03/20 09:23:44;;;;;;;18.90;9.32;;;10.10;99.90;;;;;;5051952;28;20079;-68
2023/03/20 09:26:10;;;;;;;17.92;9.07;;;10.10;99.90;;;;;;5052122;28;20049;-68
2023/03/20 09:28:35;;;;;;;15.30;8.50;;;10.10;99.90;;;;;;5052185;28;20559;-67
2023/03/20 09:31:01;;;;;;;16.95;8.73;;;10.10;99.90;;;;;;5052055;28;20044;-68
2023/03/20 09:33:27;;;;;;;13.52;8.32;;;10.10;99.90;;;;;;5051810;28;20549;-68
2023/03/20 09:35:52;;;;;;;16.77;9.02;;;10.20;99.90;;;;;;5035279;28;20036;-68
2023/03/20 09:38:18;;;;;;;15.63;8.68;;;10.30;99.90;;;;;;5052044;28;20086;-68
2023/03/20 09:40:44;;;;;;;13.82;8.43;;;10.30;99.90;;;;;;5051681;28;20532;-68
2023/03/20 09:43:26;;;;;;;16.08;8.90;;;10.40;99.90;;;;;;5051981;28;20055;-68
2023/03/20 09:46:22;;;;;;;15.88;8.55;;;10.40;99.90;;;;;;5051804;28;20120;-68
2023/03/20 09:49:00;;;;;;;13.73;8.48;;;10.30;99.90;;;;;;5052017;28;20110;-68
2023/03/20 09:51:43;;;;;;;16.10;9.20;;;10.20;99.90;;;;;;5052009;28;20091;-68
2023/03/20 09:54:41;;;;;;;15.90;8.27;;;10.20;99.90;;;;;;5051670;28;20077;-68
2023/03/20 09:57:24;;;;;;;16.38;8.68;;;10.20;99.90;;;;;;5051926;28;20094;-68
2023/03/20 09:59:56;;;;;;;16.75;9.43;;;10.20;99.90;;;;;;5051591;28;20044;-68
2023/03/20 10:02:44;;;;;;;16.20;8.85;;;10.30;99.90;;;;;;5051632;28;20041;-68
2023/03/20 10:05:24;;;;;;;16.52;9.25;;;10.50;99.90;;;;;;5051533;28;20037;-68
2023/03/20 10:07:54;;;;;;;13.38;8.52;;;10.60;99.90;;;;;;5051568;28;20083;-68
2023/03/20 10:10:26;;;;;;;16.23;8.20;;;10.80;99.90;;;;;;5051514;28;20049;-68
2023/03/20 10:13:04;;;;;;;16.52;8.65;;;10.90;99.90;;;;;;5051510;28;20055;-68
2023/03/20 10:15:53;;;;;;;17.25;8.70;;;11.10;99.90;;;;;;5052960;28;20079;-68
2023/03/20 10:18:32;;;;;;;17.08;7.93;;;11.10;99.90;;;;;;5051425;28;20052;-68
2023/03/20 10:21:06;;;;;;;15.13;8.80;;;11.00;99.90;;;;;;5052679;28;20045;-68
2023/03/20 10:23:43;;;;;;;15.27;8.20;;;10.80;99.90;;;;;;5051334;28;20120;-68
2023/03/20 10:26:12;;;;;;;18.30;8.43;;;10.70;99.90;;;;;;5051708;28;20136;-68
2023/03/20 10:28:37;;;;;;;18.38;8.73;;;10.70;99.90;;;;;;5052832;28;20029;-68
2023/03/20 10:31:35;;;;;;;17.30;9.13;;;10.60;99.90;;;;;;5051246;28;20390;-69
2023/03/20 10:34:27;;;;;;;17.67;9.30;;;10.50;99.90;;;;;;5051472;28;20049;-68
2023/03/20 10:37:25;;;;;;;14.30;8.55;;;10.40;99.90;;;;;;5052407;28;20447;-68
2023/03/20 10:40:21;;;;;;;19.20;9.40;;;10.30;99.90;;;;;;5055012;28;20052;-68
2023/03/20 10:42:48;;;;;;;19.13;9.40;;;10.30;99.90;;;;;;5055057;28;20052;-68
2023/03/20 10:45:16;;;;;;;19.83;9.18;;;10.20;99.90;;;;;;5055137;28;20056;-68
2023/03/20 10:47:45;;;;;;;14.40;8.68;;;10.20;99.90;;;;;;5054920;28;20044;-68
2023/03/20 10:50:27;;;;;;;16.30;7.90;;;10.10;99.90;;;;;;5054858;28;20051;-68
2023/03/20 10:52:55;;;;;;;17.67;7.72;;;10.20;99.90;;;;;;5055073;28;20040;-68
2023/03/20 10:55:26;;;;;;;20.38;8.55;;;10.20;99.90;;;;;;5054822;28;20041;-68
2023/03/20 10:58:00;;;;;;;17.73;8.30;;;10.30;99.90;;;;;;5054718;28;20044;-68
2023/03/20 11:00:27;;;;;;;21.52;8.10;;;10.30;99.90;;;;;;5054739;28;20132;-68
2023/03/20 11:02:53;;;;;;;18.15;8.27;;;10.30;99.90;;;;;;5054635;28;20489;-68
2023/03/20 11:05:32;;;;;;;18.95;7.88;;;10.30;99.90;;;;;;5054556;28;20037;-68
2023/03/20 11:08:13;;;;;;;17.45;7.57;;;10.30;99.90;;;;;;5054546;28;20045;-68
2023/03/20 11:10:40;;;;;;;15.10;7.30;;;10.20;99.90;;;;;;5054707;28;20045;-68
2023/03/20 11:13:15;;;;;;;15.80;7.65;;;10.10;99.90;;;;;;5054611;28;20048;-68
2023/03/20 11:15:41;;;;;;;17.63;7.45;;;10.20;99.90;;;;;;5054265;28;20044;-68
2023/03/20 11:18:12;;;;;;;12.45;6.32;;;10.20;99.90;;;;;;5054314;28;20043;-67
2023/03/20 11:21:00;;;;;;;15.93;7.15;;;10.20;99.90;;;;;;5054263;28;20045;-67
2023/03/20 11:23:33;;;;;;;14.77;6.40;;;10.20;99.90;;;;;;5054989;28;20083;-68
2023/03/20 11:26:03;;;;;;;15.75;6.93;;;10.10;99.90;;;;;;5054241;28;20047;-67
2023/03/20 11:28:38;;;;;;;14.43;6.38;;;10.10;99.90;;;;;;5055345;28;20444;-68
2023/03/20 11:31:10;;;;;;;13.98;6.05;;;10.10;99.90;;;;;;5055931;28;20048;-67
2023/03/20 11:34:03;;;;;;;12.82;6.45;;;10.00;99.90;;;;;;5053985;28;20047;-68
2023/03/20 11:36:32;;;;;;;11.15;5.35;;;10.00;99.90;;;;;;5051218;28;20544;-68
2023/03/20 11:39:13;;;;;;;12.75;6.05;;;10.00;99.90;;;;;;5054226;28;20040;-67
2023/03/20 11:41:59;;;;;;;13.85;5.85;;;10.00;99.90;;;;;;5053907;28;20094;-68
2023/03/20 11:44:33;;;;;;;17.10;5.90;;;9.90;99.90;;;;;;5054056;28;20140;-68
2023/03/20 11:47:15;;;;;;;14.80;6.40;;;9.80;99.90;;;;;;5053880;28;20048;-68
2023/03/20 11:49:48;;;;;;;11.75;5.50;;;9.80;99.90;;;;;;5052642;28;20044;-67
2023/03/20 11:52:19;;;;;;;12.68;5.40;;;9.70;99.90;;;;;;5053987;28;20053;-68
2023/03/20 11:54:51;;;;;;;10.45;5.03;;;9.80;99.90;;;;;;5053652;28;20053;-68
2023/03/20 11:57:36;;;;;;;11.67;4.83;;;9.80;99.90;;;;;;5053680;28;20507;-68
2023/03/20 12:00:14;;;;;;;17.13;5.57;;;9.80;99.90;;;;;;5053548;28;20045;-68
2023/03/20 12:02:41;;;;;;;12.20;4.90;;;9.80;99.90;;;;;;5053794;28;20040;-68
2023/03/20 12:05:17;;;;;;;10.20;4.57;;;9.80;99.90;;;;;;5053346;28;20409;-69
2023/03/20 12:07:45;;;;;;;9.93;4.10;;;9.80;99.90;;;;;;5053411;28;20056;-69
2023/03/20 12:10:13;;;;;;;15.40;4.70;;;9.70;99.90;;;;;;5053303;28;20414;-69
2023/03/20 12:12:46;;;;;;;11.25;4.65;;;9.70;99.90;;;;;;5053314;28;20053;-69
2023/03/20 12:15:11;;;;;;;11.93;3.70;;;9.70;99.90;;;;;;5053232;28;20044;-69
2023/03/20 12:17:46;;;;;;;14.90;4.30;;;9.70;99.90;;;;;;5053243;28;20127;-69
2023/03/20 12:20:52;;;;;;;13.45;4.40;;;9.70;99.90;;;;;;5053110;28;20128;-69
2023/03/20 12:23:46;;;;;;;13.63;3.65;;;9.60;99.90;;;;;;5016012;28;20045;-69
2023/03/20 12:26:23;;;;;;;8.85;3.70;;;9.60;99.90;;;;;;5051502;28;20182;-69
2023/03/20 12:29:20;;;;;;;8.57;3.17;;;9.60;99.90;;;;;;5053117;28;20049;-69
2023/03/20 12:31:55;;;;;;;10.73;3.45;;;9.60;99.90;;;;;;5053034;28;20045;-69
2023/03/20 12:34:26;;;;;;;10.32;3.50;;;9.60;99.90;;;;;;5053133;28;20048;-69
2023/03/20 12:36:56;;;;;;;8.75;3.20;;;9.60;99.90;;;;;;5052911;28;20048;-69
2023/03/20 12:39:40;;;;;;;12.07;4.40;;;9.50;99.90;;;;;;5052710;28;20032;-68
2023/03/20 12:42:26;;;;;;;8.23;4.68;;;9.50;99.90;;;;;;5053026;28;20040;-69
2023/03/20 12:45:12;;;;;;;11.57;4.50;;;9.30;99.90;;;;;;5036754;28;20037;-69
2023/03/20 12:47:56;;;;;;;10.27;4.78;;;9.20;99.90;;;;;;5052947;28;20493;-69
2023/03/20 12:50:33;;;;;;;8.65;3.67;;;9.10;99.90;;;;;;5053192;28;20448;-69
2023/03/20 12:53:08;;;;;;;10.98;4.88;;;9.20;99.90;;;;;;5052848;28;20053;-69
2023/03/20 12:55:33;;;;;;;10.48;4.82;;;9.20;99.90;;;;;;5035733;28;20063;-69
2023/03/20 12:58:08;;;;;;;10.48;4.97;;;9.20;99.90;;;;;;5052457;28;20045;-69
2023/03/20 13:00:53;;;;;;;16.27;5.57;;;9.20;99.90;;;;;;5052128;28;20490;-69
2023/03/20 13:03:51;;;;;;;11.63;4.88;;;9.20;99.90;;;;;;5052391;28;20560;-69